createdAt,value
2017-09-04T00:02:10.574Z,11
2017-09-04T00:12:10.727Z,11
2017-09-04T00:22:10.549Z,11
2017-09-04T00:32:10.517Z,12
2017-09-04T00:42:10.539Z,12
2017-09-04T00:52:10.487Z,13
2017-09-04T01:02:10.558Z,14
2017-09-04T01:12:10.565Z,13
2017-09-04T01:22:10.500Z,14
2017-09-04T01:32:10.546Z,14
2017-09-04T01:42:11.520Z,14
2017-09-04T01:52:11.222Z,14
2017-09-04T02:02:10.525Z,16
2017-09-04T02:12:11.463Z,16
2017-09-04T02:22:10.556Z,14
2017-09-04T02:32:10.662Z,16
2017-09-04T02:42:12.614Z,14
2017-09-04T02:52:11.541Z,14
2017-09-04T03:02:12.706Z,15
2017-09-04T03:12:10.680Z,16
2017-09-04T03:22:10.629Z,16
2017-09-04T03:32:10.634Z,16
2017-09-04T03:42:11.625Z,16
2017-09-04T03:52:11.640Z,17
2017-09-04T04:02:10.726Z,16
2017-09-04T04:12:10.639Z,16
2017-09-04T04:22:10.708Z,14
2017-09-04T04:32:10.637Z,15
2017-09-04T04:42:10.737Z,14
2017-09-04T04:52:10.709Z,15
2017-09-04T05:02:12.700Z,16
2017-09-04T05:12:12.757Z,15
2017-09-04T05:22:11.518Z,15
2017-09-04T05:32:10.730Z,16
2017-09-04T05:42:11.676Z,15
2017-09-04T05:52:10.740Z,18
2017-09-04T06:02:10.720Z,17
2017-09-04T06:12:11.787Z,18
2017-09-04T06:22:10.683Z,16
2017-09-04T06:32:11.816Z,15
2017-09-04T06:42:10.753Z,13
2017-09-04T06:52:10.784Z,12
2017-09-04T07:02:10.784Z,10
2017-09-04T07:12:11.781Z,10
2017-09-04T07:22:10.919Z,10
2017-09-04T07:32:10.948Z,10
2017-09-04T07:42:14.512Z,9
2017-09-04T07:52:10.890Z,9
2017-09-04T08:02:10.833Z,9
2017-09-04T08:12:10.844Z,11
2017-09-04T08:22:10.838Z,9
2017-09-04T08:32:10.836Z,11
2017-09-04T08:42:10.822Z,10
2017-09-04T08:52:10.873Z,11
2017-09-04T09:02:10.813Z,11
2017-09-04T09:12:10.874Z,12
2017-09-04T09:22:10.857Z,11
2017-09-04T09:32:10.819Z,13
2017-09-04T09:42:10.861Z,12
2017-09-04T09:52:10.803Z,13
2017-09-04T10:02:10.792Z,13
2017-09-04T10:12:10.864Z,11
2017-09-04T10:22:10.855Z,13
2017-09-04T10:32:10.874Z,12
2017-09-04T10:43:50.734Z,12
2017-09-04T10:53:53.491Z,13
2017-09-04T11:03:50.355Z,12
2017-09-04T11:13:51.557Z,9
2017-09-04T11:23:53.969Z,7
2017-09-04T11:33:52.313Z,9
2017-09-04T11:43:53.535Z,8
2017-09-04T11:53:52.643Z,8
2017-09-04T12:03:52.006Z,8
2017-09-04T12:13:51.300Z,11
2017-09-04T12:23:57.030Z,8
2017-09-04T12:33:54.139Z,8
2017-09-04T12:42:10.893Z,8
2017-09-04T12:52:11.006Z,6
2017-09-04T13:02:10.896Z,8
2017-09-04T13:12:10.986Z,6
2017-09-04T13:22:10.950Z,6
2017-09-04T13:32:10.920Z,5
2017-09-04T13:42:10.946Z,5
2017-09-04T13:52:10.923Z,4
2017-09-04T14:02:11.108Z,4
2017-09-04T14:12:10.964Z,4
2017-09-04T14:22:10.900Z,4
2017-09-04T14:32:10.929Z,4
2017-09-04T14:42:10.946Z,4
2017-09-04T14:52:10.988Z,4
2017-09-04T15:02:10.930Z,4
2017-09-04T15:12:10.931Z,4
2017-09-04T15:22:11.009Z,4
2017-09-04T15:32:10.925Z,4
2017-09-04T15:42:10.954Z,5
2017-09-04T15:52:10.947Z,4
2017-09-04T16:02:10.963Z,4
2017-09-04T16:12:11.023Z,4
2017-09-04T16:22:10.925Z,4
2017-09-04T16:32:10.988Z,4
2017-09-04T16:42:11.044Z,4
2017-09-04T16:52:10.967Z,4
2017-09-04T17:02:10.966Z,3
2017-09-04T17:12:10.883Z,4
2017-09-04T17:22:10.897Z,4
2017-09-04T17:32:10.929Z,4
2017-09-04T17:42:10.998Z,4
2017-09-04T17:52:10.929Z,4
2017-09-04T18:02:10.883Z,5
2017-09-04T18:12:10.924Z,5
2017-09-04T18:22:11.047Z,5
2017-09-04T18:32:11.031Z,5
2017-09-04T18:42:10.948Z,6
2017-09-04T18:52:10.938Z,5
2017-09-04T19:02:10.948Z,5
2017-09-04T19:12:10.919Z,7
2017-09-04T19:22:10.955Z,7
2017-09-04T19:32:10.962Z,7
2017-09-04T19:42:10.970Z,8
2017-09-04T19:52:10.921Z,8
2017-09-04T20:02:10.922Z,9
2017-09-04T20:12:10.868Z,8
2017-09-04T20:22:10.895Z,9
2017-09-04T20:32:10.965Z,9
2017-09-04T20:42:10.986Z,9
2017-09-04T20:52:10.889Z,9
2017-09-04T21:02:11.013Z,11
2017-09-04T21:12:11.205Z,11
2017-09-04T21:22:11.105Z,10
2017-09-04T21:32:10.973Z,10
2017-09-04T21:42:11.036Z,11
2017-09-04T21:52:10.979Z,11
2017-09-04T22:02:10.965Z,10
2017-09-04T22:12:10.944Z,11
2017-09-04T22:22:10.968Z,10
2017-09-04T22:32:10.926Z,10
2017-09-04T22:42:10.992Z,11
2017-09-04T22:52:10.895Z,12
2017-09-04T23:02:10.994Z,11
2017-09-04T23:12:10.939Z,11
2017-09-04T23:22:10.902Z,12
2017-09-04T23:32:11.017Z,13
2017-09-04T23:42:10.963Z,14
2017-09-04T23:52:10.880Z,13
